createdAt,value
2023-04-07T00:02:04.088Z,19.10
2023-04-07T00:04:32.659Z,16.83
2023-04-07T00:07:01.445Z,19.23
2023-04-07T00:09:29.875Z,19.77
2023-04-07T00:12:02.095Z,14.17
2023-04-07T00:14:30.438Z,17.97
2023-04-07T00:16:59.108Z,11.57
2023-04-07T00:19:27.515Z,16.13
2023-04-07T00:21:55.852Z,18.30
2023-04-07T00:24:33.732Z,17.70
2023-04-07T00:27:04.538Z,17.17
2023-04-07T00:29:32.923Z,21.27
2023-04-07T00:32:01.373Z,11.40
2023-04-07T00:34:30.022Z,14.53
2023-04-07T00:36:58.489Z,17.17
2023-04-07T00:39:27.643Z,13.60
2023-04-07T00:41:56.468Z,19.60
2023-04-07T00:44:26.354Z,18.37
2023-04-07T00:46:54.691Z,20.50
2023-04-07T00:49:23.079Z,15.37
2023-04-07T00:51:51.656Z,21.50
2023-04-07T00:54:20.105Z,17.03
2023-04-07T00:56:48.488Z,16.00
2023-04-07T00:59:17.043Z,12.73
2023-04-07T01:01:47.559Z,16.63
2023-04-07T01:04:18.725Z,17.43
2023-04-07T01:06:48.890Z,15.23
2023-04-07T01:09:18.585Z,12.27
2023-04-07T01:11:51.338Z,14.80
2023-04-07T01:14:19.938Z,13.00
2023-04-07T01:16:50.059Z,13.90
2023-04-07T01:19:18.926Z,22.80
2023-04-07T01:21:47.370Z,16.97
2023-04-07T01:24:33.706Z,20.43
2023-04-07T01:27:03.008Z,14.93
2023-04-07T01:29:36.854Z,14.17
2023-04-07T01:32:06.331Z,21.80
2023-04-07T01:34:34.896Z,15.03
2023-04-07T01:37:03.867Z,18.00
2023-04-07T01:39:32.255Z,16.07
2023-04-07T01:42:02.326Z,19.13
2023-04-07T01:44:30.792Z,17.60
2023-04-07T01:47:00.730Z,19.87
2023-04-07T01:49:29.167Z,14.77
2023-04-07T01:51:57.583Z,17.17
2023-04-07T01:54:26.073Z,12.77
2023-04-07T01:56:54.530Z,18.47
2023-04-07T01:59:22.986Z,17.97
2023-04-07T02:01:51.584Z,17.83
2023-04-07T02:04:22.777Z,24.57
2023-04-07T02:06:52.816Z,14.07
2023-04-07T02:09:21.720Z,18.40
2023-04-07T02:11:50.191Z,13.03
2023-04-07T02:14:20.404Z,11.53
2023-04-07T02:16:49.194Z,11.47
2023-04-07T02:19:17.872Z,14.03
2023-04-07T02:21:47.865Z,18.47
2023-04-07T02:24:16.283Z,13.13
2023-04-07T02:26:44.653Z,14.23
2023-04-07T02:29:13.255Z,17.37
2023-04-07T02:31:41.617Z,15.17
2023-04-07T02:34:10.076Z,11.40
2023-04-07T02:36:38.527Z,18.37
2023-04-07T02:39:08.265Z,14.50
2023-04-07T02:41:36.885Z,14.70
2023-04-07T02:44:05.348Z,15.77
2023-04-07T02:46:33.872Z,14.10
2023-04-07T02:49:02.648Z,14.80
2023-04-07T02:51:31.400Z,11.17
2023-04-07T02:53:59.872Z,15.77
2023-04-07T02:56:29.652Z,14.80
2023-04-07T02:58:58.311Z,10.63
2023-04-07T03:01:28.101Z,16.37
2023-04-07T03:03:56.916Z,9.97
2023-04-07T03:06:27.096Z,12.33
2023-04-07T03:08:55.488Z,16.83
2023-04-07T03:11:23.929Z,16.00
2023-04-07T03:13:53.816Z,13.43
2023-04-07T03:16:22.648Z,16.13
2023-04-07T03:18:51.042Z,13.03
2023-04-07T03:21:19.593Z,16.13
2023-04-07T03:23:47.997Z,9.43
2023-04-07T03:26:16.530Z,13.23
2023-04-07T03:28:44.936Z,16.00
2023-04-07T03:31:14.735Z,15.53
2023-04-07T03:33:43.172Z,14.17
2023-04-07T03:36:11.580Z,11.57
2023-04-07T03:38:39.960Z,17.57
2023-04-07T03:41:08.334Z,14.77
2023-04-07T03:43:37.020Z,10.33
2023-04-07T03:46:05.630Z,10.00
2023-04-07T03:48:35.749Z,17.43
2023-04-07T03:51:04.171Z,12.83
2023-04-07T03:53:32.639Z,12.10
2023-04-07T03:56:01.190Z,12.07
2023-04-07T03:58:29.591Z,11.97
2023-04-07T04:00:58.097Z,8.87
2023-04-07T04:03:26.659Z,14.77
2023-04-07T04:05:56.493Z,10.23
2023-04-07T04:08:25.045Z,14.83
2023-04-07T04:10:53.482Z,19.13
2023-04-07T04:13:23.061Z,9.90
2023-04-07T04:15:51.471Z,12.93
2023-04-07T04:18:20.017Z,8.17
2023-04-07T04:20:48.836Z,13.43
2023-04-07T04:23:18.616Z,13.03
2023-04-07T04:25:47.000Z,13.53
2023-04-07T04:28:15.474Z,11.03
2023-04-07T04:30:43.829Z,10.47
2023-04-07T04:33:12.229Z,15.33
2023-04-07T04:35:40.661Z,8.53
2023-04-07T04:38:10.518Z,11.03
2023-04-07T04:40:40.704Z,10.17
2023-04-07T04:43:09.653Z,8.90
2023-04-07T04:45:38.044Z,11.93
2023-04-07T04:48:06.967Z,6.70
2023-04-07T04:50:36.418Z,6.97
2023-04-07T04:53:04.937Z,13.20
2023-04-07T04:55:33.355Z,12.07
2023-04-07T04:58:03.192Z,13.87
2023-04-07T05:00:31.786Z,12.47
2023-04-07T05:03:00.612Z,12.77
2023-04-07T05:05:29.242Z,17.10
2023-04-07T05:07:57.618Z,8.97
2023-04-07T05:10:25.956Z,11.60
2023-04-07T05:12:54.343Z,11.30
2023-04-07T05:15:24.037Z,8.77
2023-04-07T05:17:52.489Z,14.07
2023-04-07T05:20:21.025Z,13.43
2023-04-07T05:22:49.513Z,13.83
2023-04-07T05:25:17.853Z,10.13
2023-04-07T05:27:46.584Z,13.73
2023-04-07T05:30:15.455Z,8.33
2023-04-07T05:32:45.518Z,9.70
2023-04-07T05:35:14.011Z,14.40
2023-04-07T05:37:42.438Z,8.83
2023-04-07T05:40:11.244Z,10.90
2023-04-07T05:42:39.943Z,7.53
2023-04-07T05:45:11.360Z,13.63
2023-04-07T05:47:39.812Z,15.40
2023-04-07T05:50:11.844Z,11.47
2023-04-07T05:52:40.361Z,7.77
2023-04-07T05:55:09.272Z,16.77
2023-04-07T05:57:37.878Z,11.37
2023-04-07T06:00:06.532Z,13.13
2023-04-07T06:02:35.126Z,11.70
2023-04-07T06:05:03.664Z,9.23
2023-04-07T06:07:33.485Z,9.03
2023-04-07T06:10:02.072Z,13.97
2023-04-07T06:12:30.521Z,10.30
2023-04-07T06:14:58.867Z,10.40
2023-04-07T06:17:27.261Z,10.73
2023-04-07T06:19:55.570Z,18.57
2023-04-07T06:22:24.176Z,13.80
2023-04-07T06:24:53.976Z,11.37
2023-04-07T06:27:23.123Z,14.43
2023-04-07T06:29:51.544Z,8.07
2023-04-07T06:32:20.436Z,11.17
2023-04-07T06:34:48.905Z,11.87
2023-04-07T06:37:17.634Z,8.77
2023-04-07T06:39:46.531Z,10.93
2023-04-07T06:42:16.258Z,9.40
2023-04-07T06:44:44.803Z,15.97
2023-04-07T06:47:13.185Z,13.43
2023-04-07T06:49:41.570Z,8.67
2023-04-07T06:52:10.052Z,9.63
2023-04-07T06:54:41.568Z,13.37
2023-04-07T06:57:12.182Z,11.43
2023-04-07T06:59:42.010Z,14.07
2023-04-07T07:02:10.734Z,8.00
2023-04-07T07:04:39.451Z,10.37
2023-04-07T07:07:08.095Z,11.30
2023-04-07T07:09:36.650Z,12.27
2023-04-07T07:12:06.354Z,10.93
2023-04-07T07:14:35.038Z,12.60
2023-04-07T07:17:04.846Z,8.00
2023-04-07T07:19:33.351Z,12.67
2023-04-07T07:22:01.799Z,13.33
2023-04-07T07:24:30.456Z,13.83
2023-04-07T07:26:58.838Z,12.40
2023-04-07T07:29:27.358Z,9.00
2023-04-07T07:31:56.313Z,12.13
2023-04-07T07:34:28.273Z,12.93
2023-04-07T07:36:56.650Z,13.93
2023-04-07T07:39:25.054Z,7.20
2023-04-07T07:41:53.450Z,10.33
2023-04-07T07:44:22.976Z,10.57
2023-04-07T07:46:51.457Z,13.80
2023-04-07T07:49:19.891Z,9.47
2023-04-07T07:51:49.686Z,13.50
2023-04-07T07:54:18.158Z,13.27
2023-04-07T07:56:46.509Z,10.30
2023-04-07T07:59:16.616Z,10.93
2023-04-07T08:01:46.162Z,11.07
2023-04-07T08:04:14.662Z,11.13
2023-04-07T08:06:43.153Z,13.30
2023-04-07T08:09:12.861Z,13.30
2023-04-07T08:11:44.243Z,7.23
2023-04-07T08:14:12.735Z,15.03
2023-04-07T08:16:41.436Z,8.53
2023-04-07T08:19:09.992Z,9.57
2023-04-07T08:21:38.542Z,8.83
2023-04-07T08:24:07.059Z,14.27
2023-04-07T08:26:36.859Z,12.13
2023-04-07T08:29:05.221Z,10.97
2023-04-07T08:31:33.597Z,7.50
2023-04-07T08:34:01.980Z,10.07
2023-04-07T08:36:31.599Z,9.97
2023-04-07T08:39:01.992Z,13.77
2023-04-07T08:41:31.613Z,15.47
2023-04-07T08:44:01.375Z,9.67
2023-04-07T08:46:29.813Z,7.53
2023-04-07T08:48:58.644Z,15.13
2023-04-07T08:51:29.706Z,14.90
2023-04-07T08:54:00.264Z,14.67
2023-04-07T08:56:28.633Z,11.50
2023-04-07T08:58:57.219Z,13.63
2023-04-07T09:01:27.070Z,8.33
2023-04-07T09:03:55.640Z,12.33
2023-04-07T09:06:24.144Z,9.57
2023-04-07T09:08:52.626Z,10.37
2023-04-07T09:11:21.346Z,6.93
2023-04-07T09:13:52.718Z,5.80
2023-04-07T09:16:21.151Z,10.97
2023-04-07T09:18:51.160Z,10.57
2023-04-07T09:21:19.624Z,10.53
2023-04-07T09:23:49.307Z,8.33
2023-04-07T09:26:22.126Z,4.87
2023-04-07T09:28:52.005Z,15.47
2023-04-07T09:31:22.297Z,8.60
2023-04-07T09:33:52.828Z,13.60
2023-04-07T09:36:21.257Z,11.83
2023-04-07T09:38:49.607Z,8.70
2023-04-07T09:41:18.337Z,9.77
2023-04-07T09:43:47.246Z,8.63
2023-04-07T09:46:16.650Z,8.13
2023-04-07T09:48:45.481Z,10.77
2023-04-07T09:51:15.824Z,8.53
2023-04-07T09:53:44.872Z,11.43
2023-04-07T09:56:13.268Z,12.67
2023-04-07T09:58:41.980Z,9.47
2023-04-07T10:01:11.029Z,9.43
2023-04-07T10:03:39.760Z,10.17
2023-04-07T10:06:08.380Z,12.07
2023-04-07T10:08:40.736Z,9.67
2023-04-07T10:11:09.295Z,13.17
2023-04-07T10:13:38.399Z,9.73
2023-04-07T10:16:07.547Z,9.80
2023-04-07T10:18:36.336Z,11.47
2023-04-07T10:21:05.367Z,14.63
2023-04-07T10:23:37.095Z,7.83
2023-04-07T10:26:07.351Z,14.23
2023-04-07T10:28:35.937Z,9.97
2023-04-07T10:31:04.389Z,11.63
2023-04-07T10:33:49.175Z,13.87
2023-04-07T10:36:20.443Z,8.63
2023-04-07T10:39:07.296Z,12.93
2023-04-07T10:41:37.692Z,8.60
2023-04-07T10:44:06.132Z,7.43
2023-04-07T10:47:05.259Z,8.67
2023-04-07T10:49:35.102Z,8.60
2023-04-07T10:52:22.226Z,5.43
2023-04-07T10:54:50.564Z,15.77
2023-04-07T10:57:21.681Z,11.23
2023-04-07T11:00:09.236Z,12.43
2023-04-07T11:02:38.291Z,7.07
2023-04-07T11:05:07.507Z,8.67
2023-04-07T11:07:46.100Z,8.87
2023-04-07T11:10:15.996Z,13.73
2023-04-07T11:12:46.124Z,10.37
2023-04-07T11:15:21.986Z,12.53
2023-04-07T11:17:58.335Z,12.23
2023-04-07T11:20:29.224Z,8.70
2023-04-07T11:23:01.383Z,7.03
2023-04-07T11:25:31.266Z,15.23
2023-04-07T11:28:01.206Z,4.90
2023-04-07T11:30:30.082Z,8.43
2023-04-07T11:33:01.662Z,9.03
2023-04-07T11:35:30.611Z,11.57
2023-04-07T11:38:04.461Z,10.43
2023-04-07T11:40:34.481Z,6.27
2023-04-07T11:43:05.375Z,10.87
2023-04-07T11:45:34.713Z,10.07
2023-04-07T11:48:17.479Z,5.03
2023-04-07T11:50:45.927Z,5.43
2023-04-07T11:53:15.087Z,14.23
2023-04-07T11:55:43.645Z,8.37
2023-04-07T11:58:13.824Z,8.07
2023-04-07T12:00:55.900Z,6.23
2023-04-07T12:03:24.709Z,14.10
2023-04-07T12:05:54.851Z,9.73
2023-04-07T12:08:23.430Z,10.50
2023-04-07T12:10:52.932Z,8.67
2023-04-07T12:13:23.792Z,5.43
2023-04-07T12:15:53.132Z,8.40
2023-04-07T12:18:22.099Z,9.23
2023-04-07T12:20:50.814Z,10.40
2023-04-07T12:23:25.391Z,9.70
2023-04-07T12:25:55.265Z,7.47
2023-04-07T12:28:25.332Z,9.10
2023-04-07T12:30:53.813Z,12.37
2023-04-07T12:33:22.378Z,12.93
2023-04-07T12:35:51.032Z,13.60
2023-04-07T12:38:19.376Z,8.17
2023-04-07T12:40:47.726Z,4.93
2023-04-07T12:43:16.305Z,5.77
2023-04-07T12:45:46.219Z,8.43
2023-04-07T12:48:14.642Z,9.13
2023-04-07T12:50:43.056Z,9.97
2023-04-07T12:53:11.683Z,7.57
2023-04-07T12:55:40.212Z,7.13
2023-04-07T12:58:09.787Z,7.07
2023-04-07T13:00:38.270Z,9.03
2023-04-07T13:03:08.677Z,13.00
2023-04-07T13:05:37.406Z,11.33
2023-04-07T13:08:06.126Z,11.70
2023-04-07T13:10:34.690Z,11.50
2023-04-07T13:13:03.158Z,8.17
2023-04-07T13:15:32.194Z,10.07
2023-04-07T13:18:01.069Z,14.87
2023-04-07T13:20:31.001Z,8.03
2023-04-07T13:23:07.462Z,17.47
2023-04-07T13:25:36.509Z,11.73
2023-04-07T13:28:04.987Z,20.07
2023-04-07T13:30:33.534Z,15.83
2023-04-07T13:33:02.235Z,17.67
2023-04-07T13:35:35.830Z,9.80
2023-04-07T13:38:04.559Z,13.27
2023-04-07T13:40:33.139Z,11.40
2023-04-07T13:43:01.693Z,9.17
2023-04-07T13:45:30.221Z,17.83
2023-04-07T13:47:58.784Z,17.10
2023-04-07T13:50:27.250Z,10.67
2023-04-07T13:52:56.999Z,13.27
2023-04-07T13:55:25.746Z,16.73
2023-04-07T13:57:54.176Z,15.27
2023-04-07T14:00:22.646Z,8.87
2023-04-07T14:02:51.184Z,8.97
2023-04-07T14:05:19.730Z,12.10
2023-04-07T14:07:48.607Z,15.13
2023-04-07T14:10:18.608Z,6.83
2023-04-07T14:12:47.185Z,23.77
2023-04-07T14:15:17.685Z,14.93
2023-04-07T14:17:46.769Z,8.97
2023-04-07T14:20:15.336Z,11.00
2023-04-07T14:22:45.133Z,11.90
2023-04-07T14:25:13.760Z,8.20
2023-04-07T14:27:43.533Z,9.77
2023-04-07T14:30:12.496Z,10.43
2023-04-07T14:32:43.854Z,11.47
2023-04-07T14:35:15.628Z,9.27
2023-04-07T14:37:44.189Z,8.97
2023-04-07T14:40:12.826Z,11.57
2023-04-07T14:42:41.676Z,9.63
2023-04-07T14:45:12.844Z,11.87
2023-04-07T14:47:41.225Z,11.63
2023-04-07T14:50:15.970Z,11.17
2023-04-07T14:52:53.477Z,13.13
2023-04-07T14:55:22.225Z,8.57
2023-04-07T14:57:50.631Z,9.17
2023-04-07T15:00:20.954Z,11.07
2023-04-07T15:02:49.446Z,11.30
2023-04-07T15:05:18.164Z,11.33
2023-04-07T15:07:50.258Z,9.13
2023-04-07T15:10:19.187Z,8.43
2023-04-07T15:12:49.002Z,9.23
2023-04-07T15:15:17.550Z,15.03
2023-04-07T15:17:47.851Z,13.37
2023-04-07T15:20:16.180Z,8.40
2023-04-07T15:22:44.807Z,14.83
2023-04-07T15:25:13.251Z,11.83
2023-04-07T15:27:41.654Z,10.63
2023-04-07T15:30:10.499Z,9.83
2023-04-07T15:32:38.994Z,12.67
2023-04-07T15:35:09.341Z,14.23
2023-04-07T15:37:38.546Z,8.67
2023-04-07T15:40:07.404Z,15.03
2023-04-07T15:42:41.816Z,8.07
2023-04-07T15:45:11.158Z,17.80
2023-04-07T15:47:39.617Z,9.70
2023-04-07T15:50:10.728Z,18.37
2023-04-07T15:52:39.158Z,15.27
2023-04-07T15:55:07.719Z,15.07
2023-04-07T15:57:36.341Z,11.20
2023-04-07T16:00:05.613Z,11.33
2023-04-07T16:02:34.296Z,10.37
2023-04-07T16:05:03.024Z,10.63
2023-04-07T16:07:32.849Z,13.70
2023-04-07T16:10:01.243Z,11.43
2023-04-07T16:12:29.740Z,11.63
2023-04-07T16:14:58.222Z,14.10
2023-04-07T16:17:26.806Z,14.57
2023-04-07T16:19:55.296Z,8.27
2023-04-07T16:22:23.672Z,12.17
2023-04-07T16:24:53.375Z,15.27
2023-04-07T16:27:21.751Z,12.27
2023-04-07T16:29:50.235Z,13.57
2023-04-07T16:32:18.716Z,11.83
2023-04-07T16:34:47.179Z,14.03
2023-04-07T16:37:16.339Z,12.70
2023-04-07T16:39:46.276Z,18.47
2023-04-07T16:42:16.042Z,12.97
2023-04-07T16:44:44.424Z,15.37
2023-04-07T16:47:12.843Z,10.87
2023-04-07T16:49:41.459Z,15.67
2023-04-07T16:52:10.256Z,15.37
2023-04-07T16:54:38.841Z,11.20
2023-04-07T16:57:07.646Z,15.67
2023-04-07T16:59:37.853Z,11.77
2023-04-07T17:02:11.358Z,15.10
2023-04-07T17:04:40.142Z,11.67
2023-04-07T17:07:08.854Z,15.57
2023-04-07T17:09:38.078Z,13.23
2023-04-07T17:12:07.809Z,8.47
2023-04-07T17:14:37.699Z,14.33
2023-04-07T17:17:06.398Z,13.93
2023-04-07T17:19:35.674Z,14.70
2023-04-07T17:22:04.174Z,14.43
2023-04-07T17:24:32.707Z,10.77
2023-04-07T17:27:01.144Z,9.53
2023-04-07T17:29:31.350Z,13.63
2023-04-07T17:32:01.483Z,9.43
2023-04-07T17:34:30.038Z,15.93
2023-04-07T17:36:58.891Z,13.90
2023-04-07T17:39:27.248Z,13.67
2023-04-07T17:41:56.131Z,15.47
2023-04-07T17:44:24.580Z,10.57
2023-04-07T17:46:54.103Z,13.87
2023-04-07T17:49:24.631Z,15.07
2023-04-07T17:51:54.039Z,21.40
2023-04-07T17:54:22.538Z,16.87
2023-04-07T17:56:51.109Z,14.03
2023-04-07T17:59:20.519Z,19.87
2023-04-07T18:01:49.475Z,18.83
2023-04-07T18:04:18.049Z,15.27
2023-04-07T18:06:48.004Z,16.27
2023-04-07T18:09:16.438Z,12.70
2023-04-07T18:11:56.956Z,18.20
2023-04-07T18:14:26.801Z,15.47
2023-04-07T18:16:56.887Z,15.20
2023-04-07T18:19:26.099Z,17.43
2023-04-07T18:22:01.267Z,19.17
2023-04-07T18:24:29.960Z,16.20
2023-04-07T18:26:58.782Z,15.40
2023-04-07T18:29:27.576Z,13.70
2023-04-07T18:31:57.898Z,12.87
2023-04-07T18:34:26.920Z,15.80
2023-04-07T18:36:55.472Z,16.73
2023-04-07T18:39:28.300Z,19.00
2023-04-07T18:41:57.966Z,16.30
2023-04-07T18:44:28.605Z,18.50
2023-04-07T18:46:57.095Z,22.20
2023-04-07T18:49:27.917Z,19.00
2023-04-07T18:51:56.881Z,15.97
2023-04-07T18:54:28.006Z,21.97
2023-04-07T18:56:57.020Z,16.20
2023-04-07T18:59:26.113Z,19.57
2023-04-07T19:01:54.580Z,16.67
2023-04-07T19:04:24.894Z,25.37
2023-04-07T19:06:53.581Z,16.60
2023-04-07T19:09:22.012Z,15.23
2023-04-07T19:11:52.425Z,18.97
2023-04-07T19:14:21.132Z,17.93
2023-04-07T19:16:49.598Z,15.83
2023-04-07T19:19:22.007Z,17.27
2023-04-07T19:21:50.910Z,23.67
2023-04-07T19:24:19.286Z,23.57
2023-04-07T19:26:47.845Z,20.90
2023-04-07T19:29:18.266Z,17.13
2023-04-07T19:31:48.013Z,17.03
2023-04-07T19:34:16.824Z,24.47
2023-04-07T19:36:45.347Z,17.23
2023-04-07T19:39:13.911Z,18.10
2023-04-07T19:41:42.392Z,17.60
2023-04-07T19:44:11.694Z,20.13
2023-04-07T19:46:41.610Z,19.17
2023-04-07T19:49:10.988Z,17.73
2023-04-07T19:51:39.734Z,20.97
2023-04-07T19:54:09.093Z,20.77
2023-04-07T19:56:37.609Z,23.13
2023-04-07T19:59:06.699Z,24.13
2023-04-07T20:01:36.012Z,19.03
2023-04-07T20:04:06.190Z,23.93
2023-04-07T20:06:36.660Z,26.27
2023-04-07T20:09:05.390Z,17.53
2023-04-07T20:11:34.081Z,26.10
2023-04-07T20:14:02.473Z,23.77
2023-04-07T20:16:33.903Z,13.63
2023-04-07T20:19:03.291Z,25.97
2023-04-07T20:21:33.476Z,20.77
2023-04-07T20:24:02.049Z,21.33
2023-04-07T20:26:30.562Z,18.83
2023-04-07T20:28:59.303Z,23.97
2023-04-07T20:31:27.738Z,22.33
2023-04-07T20:33:56.560Z,19.37
2023-04-07T20:36:25.051Z,19.63
2023-04-07T20:38:55.843Z,17.93
2023-04-07T20:41:24.586Z,19.57
2023-04-07T20:43:54.903Z,22.53
2023-04-07T20:46:23.501Z,23.27
2023-04-07T20:48:51.997Z,20.43
2023-04-07T20:51:20.488Z,23.47
2023-04-07T20:53:49.090Z,20.27
2023-04-07T20:56:19.275Z,19.73
2023-04-07T20:58:48.419Z,19.43
2023-04-07T21:01:17.199Z,17.63
2023-04-07T21:03:46.359Z,18.57
2023-04-07T21:06:15.015Z,23.03
2023-04-07T21:08:43.714Z,18.47
2023-04-07T21:11:12.180Z,21.43
2023-04-07T21:13:42.696Z,20.80
2023-04-07T21:16:11.433Z,17.63
2023-04-07T21:18:39.935Z,22.40
2023-04-07T21:21:08.797Z,24.90
2023-04-07T21:23:37.318Z,18.90
2023-04-07T21:26:05.781Z,19.87
2023-04-07T21:28:34.680Z,16.63
2023-04-07T21:31:05.987Z,16.00
2023-04-07T21:33:34.495Z,22.23
2023-04-07T21:36:03.725Z,21.57
2023-04-07T21:38:32.672Z,17.77
2023-04-07T21:41:01.592Z,20.10
2023-04-07T21:43:30.034Z,16.83
2023-04-07T21:45:58.838Z,25.53
2023-04-07T21:48:29.257Z,21.57
2023-04-07T21:50:58.002Z,18.17
2023-04-07T21:53:26.744Z,20.30
2023-04-07T21:55:55.410Z,22.10
2023-04-07T21:58:26.980Z,19.53
2023-04-07T22:00:55.922Z,20.33
2023-04-07T22:03:25.309Z,21.83
2023-04-07T22:05:55.933Z,17.17
2023-04-07T22:08:24.697Z,25.57
2023-04-07T22:10:53.140Z,23.23
2023-04-07T22:13:22.179Z,20.97
2023-04-07T22:15:51.367Z,22.10
2023-04-07T22:18:22.052Z,20.50
2023-04-07T22:20:50.724Z,22.07
2023-04-07T22:23:20.677Z,21.73
2023-04-07T22:25:49.293Z,21.90
2023-04-07T22:28:17.863Z,22.70
2023-04-07T22:30:46.423Z,22.33
2023-04-07T22:33:15.054Z,20.67
2023-04-07T22:35:44.316Z,24.20
2023-04-07T22:38:13.639Z,23.37
2023-04-07T22:40:43.506Z,19.47
2023-04-07T22:43:11.871Z,20.67
2023-04-07T22:45:41.820Z,22.60
2023-04-07T22:48:11.078Z,20.50
2023-04-07T22:50:40.057Z,27.23
2023-04-07T22:53:08.438Z,26.80
2023-04-07T22:55:37.101Z,21.43
2023-04-07T22:58:07.028Z,24.93
2023-04-07T23:00:35.461Z,20.90
2023-04-07T23:03:04.538Z,22.93
2023-04-07T23:05:37.033Z,29.20
2023-04-07T23:08:05.696Z,20.80
2023-04-07T23:10:34.484Z,22.27
2023-04-07T23:13:02.937Z,26.63
2023-04-07T23:15:32.765Z,25.13
2023-04-07T23:18:01.788Z,24.60
2023-04-07T23:20:32.984Z,23.23
2023-04-07T23:23:01.855Z,29.97
2023-04-07T23:25:30.303Z,27.10
2023-04-07T23:28:01.837Z,25.47
2023-04-07T23:30:31.247Z,25.33
2023-04-07T23:33:02.004Z,29.50
2023-04-07T23:35:30.898Z,27.30
2023-04-07T23:38:00.942Z,27.93
2023-04-07T23:40:29.714Z,28.73
2023-04-07T23:43:01.873Z,33.20
2023-04-07T23:45:30.546Z,33.90
2023-04-07T23:47:59.010Z,30.00
2023-04-07T23:50:29.485Z,32.97
2023-04-07T23:52:58.269Z,32.97
2023-04-07T23:55:27.379Z,27.80
2023-04-07T23:57:56.554Z,32.17
